createdAt,value
2018-12-25T00:00:27.204Z,8.02
2018-12-25T00:02:59.893Z,8.12
2018-12-25T00:05:29.686Z,8.47
2018-12-25T00:07:59.299Z,8.29
2018-12-25T00:10:29.628Z,8.33
2018-12-25T00:12:59.707Z,8.36
2018-12-25T00:15:30.448Z,8.39
2018-12-25T00:18:00.168Z,8.07
2018-12-25T00:20:30.744Z,7.89
2018-12-25T00:23:01.634Z,7.85
2018-12-25T00:25:31.295Z,7.69
2018-12-25T00:28:02.206Z,7.81
2018-12-25T00:30:36.337Z,7.59
2018-12-25T00:33:06.922Z,7.75
2018-12-25T00:35:39.899Z,7.84
2018-12-25T00:38:11.028Z,8.00
2018-12-25T00:40:41.597Z,8.24
2018-12-25T00:43:11.793Z,8.06
2018-12-25T00:45:43.260Z,7.81
2018-12-25T00:50:50.375Z,7.65
2018-12-25T00:53:20.848Z,7.65
2018-12-25T00:55:53.269Z,7.74
2018-12-25T00:58:25.886Z,7.96
2018-12-25T01:00:56.522Z,8.12
2018-12-25T01:03:28.793Z,7.72
2018-12-25T01:06:02.650Z,7.71
2018-12-25T01:08:34.549Z,8.16
2018-12-25T01:11:05.283Z,8.18
2018-12-25T01:13:37.965Z,8.33
2018-12-25T01:16:09.226Z,8.02
2018-12-25T01:18:39.794Z,7.85
2018-12-25T01:21:11.257Z,7.67
2018-12-25T01:23:41.826Z,8.03
2018-12-25T01:26:12.450Z,8.04
2018-12-25T01:28:43.855Z,7.87
2018-12-25T01:31:14.413Z,8.03
2018-12-25T01:33:47.153Z,7.87
2018-12-25T01:36:17.688Z,7.67
2018-12-25T01:38:49.036Z,7.58
2018-12-25T01:41:21.702Z,7.44
2018-12-25T01:43:55.639Z,7.51
2018-12-25T01:46:27.041Z,7.40
2018-12-25T01:48:57.543Z,7.43
2018-12-25T01:51:29.115Z,7.66
2018-12-25T01:53:59.713Z,7.73
2018-12-25T01:56:31.154Z,7.58
2018-12-25T01:59:03.201Z,7.64
2018-12-25T02:01:34.686Z,7.52
2018-12-25T02:04:06.175Z,7.38
2018-12-25T02:06:38.289Z,7.25
2018-12-25T02:09:09.423Z,7.21
2018-12-25T02:11:40.885Z,7.34
2018-12-25T02:14:11.620Z,7.38
2018-12-25T02:16:43.047Z,7.14
2018-12-25T02:19:13.635Z,7.00
2018-12-25T02:21:44.812Z,6.90
2018-12-25T02:24:15.415Z,7.00
2018-12-25T02:26:46.833Z,7.24
2018-12-25T02:29:18.330Z,7.13
2018-12-25T02:31:49.789Z,6.94
2018-12-25T02:34:25.219Z,7.09
2018-12-25T02:36:56.747Z,7.14
2018-12-25T02:39:27.351Z,7.25
2018-12-25T02:41:59.401Z,7.41
2018-12-25T02:44:30.034Z,7.46
2018-12-25T02:47:03.667Z,7.58
2018-12-25T02:49:35.665Z,7.82
2018-12-25T02:52:07.140Z,8.01
2018-12-25T02:54:38.762Z,8.10
2018-12-25T02:57:12.005Z,8.23
2018-12-25T02:59:43.006Z,8.59
2018-12-25T03:02:14.437Z,8.83
2018-12-25T03:04:45.914Z,8.85
2018-12-25T03:07:16.429Z,8.92
2018-12-25T03:09:47.075Z,9.05
2018-12-25T03:12:18.465Z,9.02
2018-12-25T03:14:49.016Z,9.12
2018-12-25T03:17:20.466Z,9.19
2018-12-25T03:19:59.807Z,9.17
2018-12-25T03:22:25.442Z,9.00
2018-12-25T03:24:56.231Z,8.84
2018-12-25T03:27:29.089Z,8.71
2018-12-25T03:30:00.794Z,8.45
2018-12-25T03:32:32.456Z,8.67
2018-12-25T03:35:07.716Z,8.79
2018-12-25T03:37:40.006Z,8.81
2018-12-25T03:40:10.832Z,8.75
2018-12-25T03:42:41.456Z,8.72
2018-12-25T03:45:15.790Z,8.52
2018-12-25T03:47:46.702Z,8.67
2018-12-25T03:50:17.248Z,8.79
2018-12-25T03:52:48.573Z,8.95
2018-12-25T03:55:19.878Z,9.11
2018-12-25T03:57:51.133Z,9.26
2018-12-25T04:00:24.451Z,9.27
2018-12-25T04:02:56.271Z,9.18
2018-12-25T04:05:26.819Z,9.15
2018-12-25T04:07:57.398Z,9.32
2018-12-25T04:10:29.107Z,9.29
2018-12-25T04:13:00.482Z,9.53
2018-12-25T04:15:31.912Z,9.71
2018-12-25T04:18:02.332Z,9.81
2018-12-25T04:20:33.776Z,9.97
2018-12-25T04:23:06.174Z,10.01
2018-12-25T04:25:37.361Z,9.87
2018-12-25T04:28:10.463Z,9.81
2018-12-25T04:30:43.382Z,9.90
2018-12-25T04:33:16.958Z,10.02
2018-12-25T04:35:49.202Z,10.02
2018-12-25T04:38:21.633Z,10.00
2018-12-25T04:40:54.441Z,10.11
2018-12-25T04:43:27.813Z,10.17
2018-12-25T04:45:58.990Z,9.99
2018-12-25T04:48:30.521Z,10.13
2018-12-25T04:51:02.321Z,10.16
2018-12-25T04:53:36.724Z,10.27
2018-12-25T04:56:09.811Z,10.35
2018-12-25T04:58:46.269Z,10.44
2018-12-25T05:01:21.372Z,10.52
2018-12-25T05:03:53.744Z,10.72
2018-12-25T05:06:26.623Z,10.59
2018-12-25T05:09:03.024Z,10.52
2018-12-25T05:11:37.876Z,10.64
2018-12-25T05:14:15.568Z,10.62
2018-12-25T05:16:47.862Z,9.96
2018-12-25T05:19:21.594Z,9.83
2018-12-25T05:21:53.148Z,9.97
2018-12-25T05:24:25.938Z,9.99
2018-12-25T05:26:57.810Z,9.94
2018-12-25T05:29:29.424Z,9.97
2018-12-25T05:32:00.171Z,9.91
2018-12-25T05:34:31.585Z,9.97
2018-12-25T05:37:02.205Z,9.99
2018-12-25T05:39:33.622Z,10.00
2018-12-25T05:42:04.554Z,10.05
2018-12-25T05:44:36.090Z,10.32
2018-12-25T05:47:06.698Z,10.28
2018-12-25T05:49:37.217Z,10.51
2018-12-25T05:52:08.557Z,10.42
2018-12-25T05:54:41.245Z,10.33
2018-12-25T05:57:11.847Z,10.18
2018-12-25T05:59:42.495Z,10.34
2018-12-25T06:02:13.949Z,10.49
2018-12-25T06:04:46.372Z,10.57
2018-12-25T06:07:17.298Z,10.62
2018-12-25T06:09:47.893Z,10.32
2018-12-25T06:12:18.549Z,10.12
2018-12-25T06:14:50.049Z,10.07
2018-12-25T06:17:20.651Z,10.02
2018-12-25T06:19:52.420Z,9.98
2018-12-25T06:22:23.073Z,9.99
2018-12-25T06:24:53.581Z,10.02
2018-12-25T06:27:24.237Z,10.00
2018-12-25T06:29:53.868Z,10.00
2018-12-25T06:32:25.314Z,10.09
2018-12-25T06:34:57.029Z,10.20
2018-12-25T06:37:27.598Z,10.55
2018-12-25T06:39:58.169Z,10.45
2018-12-25T06:42:28.609Z,10.60
2018-12-25T06:44:59.259Z,10.71
2018-12-25T06:47:29.844Z,10.59
2018-12-25T06:50:00.838Z,10.64
2018-12-25T06:52:32.065Z,10.32
2018-12-25T06:55:01.927Z,10.21
2018-12-25T06:57:33.605Z,10.23
2018-12-25T07:00:04.396Z,10.32
2018-12-25T07:02:33.986Z,10.34
2018-12-25T07:05:03.899Z,10.31
2018-12-25T07:07:34.538Z,10.36
2018-12-25T07:10:05.057Z,10.06
2018-12-25T07:12:34.734Z,9.98
2018-12-25T07:15:04.814Z,9.82
2018-12-25T07:17:34.533Z,9.76
2018-12-25T07:20:05.283Z,9.71
2018-12-25T07:22:35.877Z,9.62
2018-12-25T07:25:06.005Z,9.90
2018-12-25T07:27:36.639Z,9.63
2018-12-25T07:30:06.575Z,9.61
2018-12-25T07:32:36.800Z,9.54
2018-12-25T07:35:07.949Z,9.45
2018-12-25T07:37:38.374Z,9.43
2018-12-25T07:40:09.830Z,9.43
2018-12-25T07:42:41.854Z,9.44
2018-12-25T07:45:12.788Z,9.79
2018-12-25T07:47:42.453Z,9.89
2018-12-25T07:50:13.473Z,10.11
2018-12-25T07:52:43.140Z,9.86
2018-12-25T07:55:12.716Z,9.64
2018-12-25T07:57:42.790Z,9.61
2018-12-25T08:00:16.109Z,9.35
2018-12-25T08:02:46.241Z,9.25
2018-12-25T08:05:15.951Z,9.37
2018-12-25T08:07:45.896Z,9.61
2018-12-25T08:10:16.115Z,9.64
2018-12-25T08:12:45.766Z,9.44
2018-12-25T08:15:16.241Z,9.58
2018-12-25T08:17:47.202Z,9.85
2018-12-25T08:20:16.975Z,9.93
2018-12-25T08:22:46.743Z,9.88
2018-12-25T08:25:17.322Z,9.72
2018-12-25T08:27:49.916Z,9.72
2018-12-25T08:30:24.423Z,9.55
2018-12-25T08:32:56.095Z,9.47
2018-12-25T08:35:27.940Z,9.30
2018-12-25T08:37:59.683Z,9.25
2018-12-25T08:40:29.305Z,9.09
2018-12-25T08:43:01.398Z,9.26
2018-12-25T08:45:31.058Z,9.32
2018-12-25T08:48:01.367Z,9.12
2018-12-25T08:50:34.146Z,8.92
2018-12-25T08:53:03.753Z,9.19
2018-12-25T08:55:33.462Z,9.29
2018-12-25T08:58:05.164Z,9.28
2018-12-25T09:00:35.650Z,9.42
2018-12-25T09:03:06.578Z,9.28
2018-12-25T09:05:38.490Z,9.22
2018-12-25T09:08:08.162Z,9.22
2018-12-25T09:10:38.513Z,9.34
2018-12-25T09:13:09.242Z,9.31
2018-12-25T09:15:41.694Z,9.33
2018-12-25T09:18:12.331Z,9.75
2018-12-25T09:20:42.849Z,9.88
2018-12-25T09:23:13.556Z,9.78
2018-12-25T09:25:45.677Z,9.93
2018-12-25T09:28:15.397Z,9.69
2018-12-25T09:30:46.074Z,9.50
2018-12-25T09:33:21.007Z,9.84
2018-12-25T09:35:50.650Z,9.66
2018-12-25T09:38:21.861Z,9.71
2018-12-25T09:40:51.554Z,10.05
2018-12-25T09:43:23.113Z,9.96
2018-12-25T09:45:53.686Z,9.74
2018-12-25T09:48:24.049Z,9.84
2018-12-25T09:50:55.535Z,10.08
2018-12-25T09:53:26.164Z,10.05
2018-12-25T09:55:55.995Z,10.05
2018-12-25T09:58:27.580Z,10.37
2018-12-25T10:00:57.647Z,10.25
2018-12-25T10:03:27.421Z,10.23
2018-12-25T10:05:57.263Z,10.60
2018-12-25T10:08:30.023Z,10.67
2018-12-25T10:10:59.667Z,10.76
2018-12-25T10:13:31.284Z,10.56
2018-12-25T10:16:03.645Z,10.60
2018-12-25T10:18:34.230Z,10.47
2018-12-25T10:21:04.001Z,10.48
2018-12-25T10:23:33.697Z,10.56
2018-12-25T10:26:03.398Z,10.98
2018-12-25T10:28:33.029Z,10.87
2018-12-25T10:31:03.732Z,10.95
2018-12-25T10:33:34.626Z,10.98
2018-12-25T10:36:04.286Z,11.13
2018-12-25T10:38:34.674Z,11.24
2018-12-25T10:41:04.400Z,11.10
2018-12-25T10:43:34.947Z,11.29
2018-12-25T10:46:06.863Z,11.23
2018-12-25T10:48:36.605Z,11.23
2018-12-25T10:51:06.838Z,11.41
2018-12-25T10:53:38.689Z,11.57
2018-12-25T10:56:09.876Z,11.59
2018-12-25T10:58:41.855Z,11.61
2018-12-25T11:01:18.023Z,11.31
2018-12-25T11:03:47.686Z,11.33
2018-12-25T11:06:19.277Z,11.17
2018-12-25T11:08:50.377Z,11.22
2018-12-25T11:11:21.726Z,11.11
2018-12-25T11:13:51.401Z,11.04
2018-12-25T11:16:22.618Z,10.89
2018-12-25T11:18:52.384Z,11.11
2018-12-25T11:21:23.046Z,11.05
2018-12-25T11:23:52.666Z,11.16
2018-12-25T11:26:22.760Z,11.21
2018-12-25T11:28:53.605Z,11.39
2018-12-25T11:31:23.351Z,11.07
2018-12-25T11:33:54.957Z,11.22
2018-12-25T11:36:24.610Z,11.33
2018-12-25T11:38:55.566Z,11.17
2018-12-25T11:41:25.199Z,11.03
2018-12-25T11:43:54.843Z,11.24
2018-12-25T11:46:24.761Z,11.26
2018-12-25T11:48:56.518Z,11.54
2018-12-25T11:51:26.157Z,11.51
2018-12-25T11:53:56.729Z,11.31
2018-12-25T11:56:28.397Z,11.35
2018-12-25T11:59:01.586Z,11.33
2018-12-25T12:01:31.650Z,11.18
2018-12-25T12:04:01.460Z,11.09
2018-12-25T12:06:31.154Z,11.22
2018-12-25T12:09:02.092Z,11.31
2018-12-25T12:11:32.345Z,11.42
2018-12-25T12:14:03.014Z,11.35
2018-12-25T12:16:34.292Z,11.62
2018-12-25T12:19:04.971Z,11.69
2018-12-25T12:21:34.617Z,11.67
2018-12-25T12:24:04.585Z,11.73
2018-12-25T12:26:34.230Z,11.81
2018-12-25T12:29:04.453Z,11.66
2018-12-25T12:31:34.248Z,11.62
2018-12-25T12:34:04.066Z,11.53
2018-12-25T12:36:37.006Z,11.54
2018-12-25T12:39:07.896Z,11.40
2018-12-25T12:41:37.575Z,11.62
2018-12-25T12:44:07.769Z,11.68
2018-12-25T12:46:38.602Z,11.60
2018-12-25T12:49:11.069Z,11.85
2018-12-25T12:51:41.216Z,12.16
2018-12-25T12:54:12.440Z,12.13
2018-12-25T12:56:43.104Z,12.28
2018-12-25T12:59:13.603Z,12.30
2018-12-25T13:01:43.522Z,12.18
2018-12-25T13:04:14.144Z,11.83
2018-12-25T13:06:45.462Z,11.93
2018-12-25T13:09:15.837Z,11.89
2018-12-25T13:11:46.622Z,11.73
2018-12-25T13:14:18.121Z,11.92
2018-12-25T13:16:49.132Z,11.69
2018-12-25T13:19:18.902Z,11.92
2018-12-25T13:21:48.721Z,11.91
2018-12-25T13:24:20.233Z,11.84
2018-12-25T13:26:51.593Z,11.57
2018-12-25T13:29:21.835Z,11.48
2018-12-25T13:31:51.515Z,11.50
2018-12-25T13:34:23.655Z,11.54
2018-12-25T13:36:53.766Z,11.78
2018-12-25T13:39:23.519Z,11.71
2018-12-25T13:41:54.520Z,11.68
2018-12-25T13:44:24.563Z,11.76
2018-12-25T13:46:54.300Z,11.83
2018-12-25T13:49:25.035Z,11.83
2018-12-25T13:51:56.370Z,11.62
2018-12-25T13:54:26.046Z,11.70
2018-12-25T13:56:57.721Z,11.64
2018-12-25T13:59:30.237Z,11.62
2018-12-25T14:02:00.671Z,11.54
2018-12-25T14:04:32.582Z,11.60
2018-12-25T14:07:04.579Z,11.52
2018-12-25T14:09:34.377Z,11.61
2018-12-25T14:12:06.098Z,11.47
2018-12-25T14:14:37.143Z,11.44
2018-12-25T14:17:07.391Z,11.35
2018-12-25T14:19:37.160Z,11.44
2018-12-25T14:22:06.851Z,11.23
2018-12-25T14:24:37.485Z,11.27
2018-12-25T14:27:07.200Z,11.17
2018-12-25T14:29:37.949Z,11.20
2018-12-25T14:32:08.840Z,11.15
2018-12-25T14:34:38.616Z,11.07
2018-12-25T14:37:08.353Z,11.31
2018-12-25T14:39:43.421Z,11.46
2018-12-25T14:42:13.997Z,11.39
2018-12-25T14:44:43.597Z,11.57
2018-12-25T14:47:13.769Z,11.31
2018-12-25T14:49:43.475Z,11.44
2018-12-25T14:52:13.106Z,11.45
2018-12-25T14:54:44.194Z,11.24
2018-12-25T14:57:18.163Z,11.19
2018-12-25T14:59:49.719Z,11.39
2018-12-25T15:02:19.434Z,11.25
2018-12-25T15:04:52.080Z,11.19
2018-12-25T15:07:22.666Z,11.39
2018-12-25T15:09:53.589Z,10.98
2018-12-25T15:12:26.126Z,10.78
2018-12-25T15:14:56.470Z,11.06
2018-12-25T15:17:26.141Z,11.25
2018-12-25T15:19:56.360Z,11.31
2018-12-25T15:22:26.095Z,11.24
2018-12-25T15:25:00.441Z,11.00
2018-12-25T15:27:33.644Z,10.90
2018-12-25T15:30:03.468Z,10.81
2018-12-25T15:32:33.128Z,10.81
2018-12-25T15:35:02.926Z,10.84
2018-12-25T15:37:33.417Z,10.95
2018-12-25T15:40:03.248Z,11.05
2018-12-25T15:42:33.050Z,11.12
2018-12-25T15:45:03.885Z,11.00
2018-12-25T15:47:36.120Z,10.90
2018-12-25T15:50:06.196Z,10.82
2018-12-25T15:52:36.343Z,10.76
2018-12-25T15:55:07.919Z,10.90
2018-12-25T15:57:37.772Z,10.98
2018-12-25T16:00:16.244Z,10.92
2018-12-25T16:02:46.656Z,10.81
2018-12-25T16:05:16.317Z,10.70
2018-12-25T16:07:46.061Z,10.89
2018-12-25T16:10:16.678Z,10.79
2018-12-25T16:12:46.723Z,10.71
2018-12-25T16:15:16.390Z,10.79
2018-12-25T16:17:47.208Z,10.90
2018-12-25T16:20:16.899Z,10.77
2018-12-25T16:22:48.082Z,10.67
2018-12-25T16:25:18.413Z,10.65
2018-12-25T16:27:48.667Z,10.79
2018-12-25T16:30:18.391Z,10.90
2018-12-25T16:32:48.173Z,10.83
2018-12-25T16:35:21.777Z,11.05
2018-12-25T16:37:51.522Z,11.16
2018-12-25T16:40:21.259Z,11.19
2018-12-25T16:42:51.339Z,11.09
2018-12-25T16:45:23.658Z,11.10
2018-12-25T16:47:53.359Z,10.97
2018-12-25T16:50:23.656Z,11.01
2018-12-25T16:52:54.214Z,11.01
2018-12-25T16:55:24.577Z,11.02
2018-12-25T16:57:55.987Z,11.01
2018-12-25T17:00:26.186Z,10.97
2018-12-25T17:02:56.039Z,10.65
2018-12-25T17:06:02.701Z,10.74
2018-12-25T17:08:53.411Z,10.53
2018-12-25T17:11:54.324Z,10.61
2018-12-25T17:14:47.066Z,10.62
2018-12-25T17:17:36.390Z,10.82
2018-12-25T17:26:18.350Z,10.72
2018-12-25T17:28:51.755Z,10.76
2018-12-25T17:34:45.199Z,11.27
2018-12-25T17:37:37.273Z,11.59
2018-12-25T17:40:47.428Z,11.30
2018-12-25T17:43:48.471Z,10.96
2018-12-25T17:46:37.787Z,11.00
2018-12-25T17:49:27.365Z,11.02
2018-12-25T17:57:52.447Z,11.14
2018-12-25T18:03:24.068Z,10.80
2018-12-25T18:05:58.132Z,10.94
2018-12-25T18:08:29.406Z,10.96
2018-12-25T18:11:31.932Z,10.91
2018-12-25T18:14:05.181Z,10.90
2018-12-25T18:32:08.535Z,10.98
2018-12-25T18:34:52.754Z,10.90
2018-12-25T18:41:01.089Z,10.96
2018-12-25T18:44:33.064Z,10.88
2018-12-25T18:47:30.050Z,10.71
2018-12-25T18:53:50.807Z,10.24
2018-12-25T18:56:37.018Z,10.16
2018-12-25T18:59:44.146Z,10.10
2018-12-25T19:02:45.158Z,10.01
2018-12-25T19:08:54.578Z,10.07
2018-12-25T19:18:18.770Z,10.91
2018-12-25T19:24:11.546Z,10.64
2018-12-25T19:27:28.502Z,10.39
2018-12-25T19:33:47.152Z,10.32
2018-12-25T19:39:25.540Z,10.57
2018-12-25T19:43:15.503Z,10.57
2018-12-25T19:46:12.101Z,10.88
2018-12-25T19:52:27.287Z,10.53
2018-12-25T20:01:49.265Z,10.46
2018-12-25T20:08:04.252Z,10.21
2018-12-25T20:14:31.731Z,10.46
2018-12-25T20:24:43.208Z,10.52
2018-12-25T20:28:47.448Z,10.34
2018-12-25T20:41:41.226Z,10.47
2018-12-25T20:45:38.071Z,10.22
2018-12-25T21:08:31.831Z,9.32
2018-12-25T21:15:34.706Z,9.41
2018-12-25T21:25:54.601Z,8.92
2018-12-25T21:28:22.329Z,8.98
2018-12-25T21:31:38.644Z,9.04
2018-12-25T21:44:36.505Z,9.33
2018-12-25T21:50:26.795Z,9.38
2018-12-25T21:56:40.314Z,9.45
2018-12-25T22:00:00.082Z,9.61
2018-12-25T22:08:51.180Z,9.06
2018-12-25T22:18:33.692Z,8.87
2018-12-25T22:21:15.384Z,8.83
2018-12-25T22:24:26.319Z,8.73
2018-12-25T22:27:37.439Z,8.74
2018-12-25T22:30:44.378Z,8.54
2018-12-25T22:34:23.236Z,8.65
2018-12-25T22:37:08.000Z,8.39
2018-12-25T22:43:18.642Z,8.23
2018-12-25T22:46:03.204Z,8.15
2018-12-25T22:49:51.849Z,8.32
2018-12-25T22:55:15.510Z,8.94
2018-12-25T22:58:28.554Z,8.65
2018-12-25T23:10:53.322Z,8.16
2018-12-25T23:13:56.162Z,8.10
2018-12-25T23:23:19.622Z,8.11
2018-12-25T23:26:02.451Z,8.12
2018-12-25T23:29:14.528Z,8.09
2018-12-25T23:41:50.161Z,8.02
2018-12-25T23:47:36.409Z,8.21
2018-12-25T23:50:22.445Z,8.15
2018-12-25T23:53:03.965Z,8.37
2018-12-25T23:55:52.881Z,8.29
